sensor_id;sensor_type;location;lat;lon;timestamp;pressure;altitude;pressure_sealevel;temperature;humidity
20656;BME280;10487;53.320;8.672;2023-05-02T00:00:01;101402.19;;;10.26;44.38
20656;BME280;10487;53.320;8.672;2023-05-02T00:03:04;101399.66;;;10.24;44.39
20656;BME280;10487;53.320;8.672;2023-05-02T00:06:07;101392.69;;;10.22;44.42
20656;BME280;10487;53.320;8.672;2023-05-02T00:09:08;101391.94;;;10.20;44.53
20656;BME280;10487;53.320;8.672;2023-05-02T00:12:10;101395.66;;;10.17;44.52
20656;BME280;10487;53.320;8.672;2023-05-02T00:15:12;101390.41;;;10.16;44.55
20656;BME280;10487;53.320;8.672;2023-05-02T00:18:13;101389.56;;;10.15;44.67
20656;BME280;10487;53.320;8.672;2023-05-02T00:21:15;101395.84;;;10.14;44.64
20656;BME280;10487;53.320;8.672;2023-05-02T00:24:17;101405.63;;;10.14;44.62
20656;BME280;10487;53.320;8.672;2023-05-02T00:27:19;101403.19;;;10.11;44.63
20656;BME280;10487;53.320;8.672;2023-05-02T00:30:20;101396.22;;;10.08;44.75
20656;BME280;10487;53.320;8.672;2023-05-02T00:33:22;101398.03;;;10.08;44.74
20656;BME280;10487;53.320;8.672;2023-05-02T00:36:23;101403.44;;;10.06;44.84
20656;BME280;10487;53.320;8.672;2023-05-02T00:39:25;101403.53;;;10.05;44.78
20656;BME280;10487;53.320;8.672;2023-05-02T00:42:27;101415.25;;;10.02;44.80
20656;BME280;10487;53.320;8.672;2023-05-02T00:45:31;101424.19;;;10.01;44.95
20656;BME280;10487;53.320;8.672;2023-05-02T00:48:33;101413.72;;;9.98;45.03
20656;BME280;10487;53.320;8.672;2023-05-02T00:51:35;101420.28;;;9.93;45.07
20656;BME280;10487;53.320;8.672;2023-05-02T00:54:37;101422.38;;;9.87;45.15
20656;BME280;10487;53.320;8.672;2023-05-02T00:57:42;101416.34;;;9.84;45.20
20656;BME280;10487;53.320;8.672;2023-05-02T01:11:13;101421.81;;;9.67;45.34
20656;BME280;10487;53.320;8.672;2023-05-02T01:14:16;101419.34;;;9.64;45.48
20656;BME280;10487;53.320;8.672;2023-05-02T01:17:19;101418.56;;;9.62;45.48
20656;BME280;10487;53.320;8.672;2023-05-02T01:20:26;101424.09;;;9.59;45.47
20656;BME280;10487;53.320;8.672;2023-05-02T01:26:37;101435.38;;;9.48;45.66
20656;BME280;10487;53.320;8.672;2023-05-02T01:29:48;101434.03;;;9.41;45.78
20656;BME280;10487;53.320;8.672;2023-05-02T01:32:52;101439.59;;;9.37;45.75
20656;BME280;10487;53.320;8.672;2023-05-02T01:35:56;101440.88;;;9.29;45.91
20656;BME280;10487;53.320;8.672;2023-05-02T01:38:59;101452.66;;;9.25;45.99
20656;BME280;10487;53.320;8.672;2023-05-02T01:42:02;101451.19;;;9.20;45.93
20656;BME280;10487;53.320;8.672;2023-05-02T01:45:06;101462.22;;;9.14;45.97
20656;BME280;10487;53.320;8.672;2023-05-02T01:48:09;101470.69;;;9.05;46.22
20656;BME280;10487;53.320;8.672;2023-05-02T01:51:13;101470.34;;;8.95;46.19
20656;BME280;10487;53.320;8.672;2023-05-02T01:54:19;101472.75;;;8.84;46.27
20656;BME280;10487;53.320;8.672;2023-05-02T01:57:23;101485.69;;;8.75;46.34
20656;BME280;10487;53.320;8.672;2023-05-02T02:00:26;101491.41;;;8.67;46.44
20656;BME280;10487;53.320;8.672;2023-05-02T02:03:30;101490.28;;;8.55;46.35
20656;BME280;10487;53.320;8.672;2023-05-02T02:06:32;101519.94;;;8.48;46.53
20656;BME280;10487;53.320;8.672;2023-05-02T02:09:34;101516.81;;;8.40;46.43
20656;BME280;10487;53.320;8.672;2023-05-02T02:12:48;101529.75;;;8.30;46.43
20656;BME280;10487;53.320;8.672;2023-05-02T02:15:52;101523.91;;;8.24;46.66
20656;BME280;10487;53.320;8.672;2023-05-02T02:19:02;101529.59;;;8.16;46.49
20656;BME280;10487;53.320;8.672;2023-05-02T02:22:07;101526.19;;;8.14;46.63
20656;BME280;10487;53.320;8.672;2023-05-02T02:25:12;101530.00;;;8.09;46.66
20656;BME280;10487;53.320;8.672;2023-05-02T02:28:14;101538.09;;;8.06;46.68
20656;BME280;10487;53.320;8.672;2023-05-02T02:31:16;101538.22;;;8.02;46.58
20656;BME280;10487;53.320;8.672;2023-05-02T02:34:18;101545.44;;;8.00;46.70
20656;BME280;10487;53.320;8.672;2023-05-02T02:40:55;101556.22;;;7.97;46.76
20656;BME280;10487;53.320;8.672;2023-05-02T02:44:04;101559.03;;;7.94;46.90
20656;BME280;10487;53.320;8.672;2023-05-02T02:47:28;101567.16;;;7.91;46.57
20656;BME280;10487;53.320;8.672;2023-05-02T02:50:40;101572.78;;;7.85;46.82
20656;BME280;10487;53.320;8.672;2023-05-02T03:01:02;101597.59;;;7.67;46.86
20656;BME280;10487;53.320;8.672;2023-05-02T03:04:04;101611.16;;;7.61;46.93
20656;BME280;10487;53.320;8.672;2023-05-02T03:07:08;101617.69;;;7.54;47.07
20656;BME280;10487;53.320;8.672;2023-05-02T03:10:09;101621.50;;;7.49;47.05
20656;BME280;10487;53.320;8.672;2023-05-02T03:13:12;101625.25;;;7.45;47.00
20656;BME280;10487;53.320;8.672;2023-05-02T03:16:38;101630.81;;;7.39;47.03
20656;BME280;10487;53.320;8.672;2023-05-02T03:19:40;101646.06;;;7.35;47.18
20656;BME280;10487;53.320;8.672;2023-05-02T03:22:41;101655.16;;;7.29;47.09
20656;BME280;10487;53.320;8.672;2023-05-02T03:25:43;101649.19;;;7.24;47.12
20656;BME280;10487;53.320;8.672;2023-05-02T03:28:45;101649.31;;;7.21;46.99
20656;BME280;10487;53.320;8.672;2023-05-02T03:31:47;101661.81;;;7.19;46.95
20656;BME280;10487;53.320;8.672;2023-05-02T03:34:49;101660.16;;;7.17;47.02
20656;BME280;10487;53.320;8.672;2023-05-02T03:37:50;101663.94;;;7.11;46.99
20656;BME280;10487;53.320;8.672;2023-05-02T03:40:55;101663.38;;;7.05;46.83
20656;BME280;10487;53.320;8.672;2023-05-02T03:43:57;101668.00;;;7.00;46.97
20656;BME280;10487;53.320;8.672;2023-05-02T03:46:59;101673.56;;;6.94;47.10
20656;BME280;10487;53.320;8.672;2023-05-02T03:50:00;101679.03;;;6.91;47.06
20656;BME280;10487;53.320;8.672;2023-05-02T03:53:03;101683.53;;;6.89;47.07
20656;BME280;10487;53.320;8.672;2023-05-02T03:56:05;101688.13;;;6.85;47.04
20656;BME280;10487;53.320;8.672;2023-05-02T03:59:08;101684.69;;;6.83;47.09
20656;BME280;10487;53.320;8.672;2023-05-02T04:02:10;101696.28;;;6.81;47.00
20656;BME280;10487;53.320;8.672;2023-05-02T04:05:12;101699.84;;;6.80;46.97
20656;BME280;10487;53.320;8.672;2023-05-02T04:08:14;101714.13;;;6.77;47.02
20656;BME280;10487;53.320;8.672;2023-05-02T04:11:15;101709.81;;;6.75;47.03
20656;BME280;10487;53.320;8.672;2023-05-02T04:14:17;101721.41;;;6.72;47.04
20656;BME280;10487;53.320;8.672;2023-05-02T04:17:20;101723.31;;;6.68;46.92
20656;BME280;10487;53.320;8.672;2023-05-02T04:20:21;101733.97;;;6.67;47.03
20656;BME280;10487;53.320;8.672;2023-05-02T04:23:23;101735.03;;;6.63;47.08
20656;BME280;10487;53.320;8.672;2023-05-02T04:26:24;101743.91;;;6.62;47.08
20656;BME280;10487;53.320;8.672;2023-05-02T04:29:27;101743.91;;;6.62;46.96
20656;BME280;10487;53.320;8.672;2023-05-02T04:32:29;101746.63;;;6.60;46.91
20656;BME280;10487;53.320;8.672;2023-05-02T04:35:30;101755.50;;;6.59;47.05
20656;BME280;10487;53.320;8.672;2023-05-02T04:38:32;101756.56;;;6.55;47.04
20656;BME280;10487;53.320;8.672;2023-05-02T04:41:33;101770.06;;;6.49;46.85
20656;BME280;10487;53.320;8.672;2023-05-02T04:44:35;101754.41;;;6.43;47.02
20656;BME280;10487;53.320;8.672;2023-05-02T04:47:37;101767.03;;;6.37;47.09
20656;BME280;10487;53.320;8.672;2023-05-02T04:50:38;101768.97;;;6.33;46.98
20656;BME280;10487;53.320;8.672;2023-05-02T04:53:40;101782.25;;;6.32;47.07
20656;BME280;10487;53.320;8.672;2023-05-02T04:56:42;101782.31;;;6.30;47.07
20656;BME280;10487;53.320;8.672;2023-05-02T04:59:43;101784.19;;;6.28;46.99
20656;BME280;10487;53.320;8.672;2023-05-02T05:02:45;101799.28;;;6.26;47.01
20656;BME280;10487;53.320;8.672;2023-05-02T05:05:47;101798.41;;;6.26;47.00
20656;BME280;10487;53.320;8.672;2023-05-02T05:08:49;101812.59;;;6.25;47.00
20656;BME280;10487;53.320;8.672;2023-05-02T05:11:50;101815.31;;;6.23;47.13
20656;BME280;10487;53.320;8.672;2023-05-02T05:14:52;101822.47;;;6.21;47.04
20656;BME280;10487;53.320;8.672;2023-05-02T05:17:53;101820.72;;;6.20;47.11
20656;BME280;10487;53.320;8.672;2023-05-02T05:20:55;101826.03;;;6.20;47.00
20656;BME280;10487;53.320;8.672;2023-05-02T05:23:57;101825.09;;;6.21;46.93
20656;BME280;10487;53.320;8.672;2023-05-02T05:26:58;101837.41;;;6.22;46.94
20656;BME280;10487;53.320;8.672;2023-05-02T05:30:00;101841.84;;;6.22;47.09
20656;BME280;10487;53.320;8.672;2023-05-02T05:33:03;101842.50;;;6.28;46.94
20656;BME280;10487;53.320;8.672;2023-05-02T05:36:09;101852.97;;;6.31;46.95
20656;BME280;10487;53.320;8.672;2023-05-02T05:39:11;101853.03;;;6.30;46.84
20656;BME280;10487;53.320;8.672;2023-05-02T05:42:13;101857.53;;;6.28;46.83
20656;BME280;10487;53.320;8.672;2023-05-02T05:45:15;101865.47;;;6.28;46.87
20656;BME280;10487;53.320;8.672;2023-05-02T05:48:17;101874.34;;;6.27;46.95
20656;BME280;10487;53.320;8.672;2023-05-02T05:51:19;101883.28;;;6.24;46.85
20656;BME280;10487;53.320;8.672;2023-05-02T05:54:21;101891.31;;;6.23;46.81
20656;BME280;10487;53.320;8.672;2023-05-02T05:57:22;101892.28;;;6.20;46.92
20656;BME280;10487;53.320;8.672;2023-05-02T06:00:24;101897.66;;;6.19;46.75
20656;BME280;10487;53.320;8.672;2023-05-02T06:03:26;101898.38;;;6.22;46.92
20656;BME280;10487;53.320;8.672;2023-05-02T06:06:28;101907.97;;;6.26;46.79
20656;BME280;10487;53.320;8.672;2023-05-02T06:09:30;101909.75;;;6.26;46.76
20656;BME280;10487;53.320;8.672;2023-05-02T06:12:32;101912.44;;;6.24;46.81
20656;BME280;10487;53.320;8.672;2023-05-02T06:15:34;101918.59;;;6.25;46.65
20656;BME280;10487;53.320;8.672;2023-05-02T06:18:36;101921.31;;;6.23;46.80
20656;BME280;10487;53.320;8.672;2023-05-02T06:21:39;101923.97;;;6.23;46.74
20656;BME280;10487;53.320;8.672;2023-05-02T06:24:42;101929.28;;;6.23;46.63
20656;BME280;10487;53.320;8.672;2023-05-02T06:27:44;101927.59;;;6.21;46.66
20656;BME280;10487;53.320;8.672;2023-05-02T06:30:46;101940.06;;;6.19;46.63
20656;BME280;10487;53.320;8.672;2023-05-02T06:33:47;101948.03;;;6.17;46.52
20656;BME280;10487;53.320;8.672;2023-05-02T06:36:53;101942.75;;;6.17;46.47
20656;BME280;10487;53.320;8.672;2023-05-02T06:39:56;101949.88;;;6.15;46.52
20656;BME280;10487;53.320;8.672;2023-05-02T06:42:57;101956.97;;;6.15;46.50
20656;BME280;10487;53.320;8.672;2023-05-02T06:45:59;101955.19;;;6.15;46.46
20656;BME280;10487;53.320;8.672;2023-05-02T06:49:01;101967.53;;;6.16;46.50
20656;BME280;10487;53.320;8.672;2023-05-02T06:52:02;101967.53;;;6.16;46.38
20656;BME280;10487;53.320;8.672;2023-05-02T06:55:04;101981.53;;;6.20;46.38
20656;BME280;10487;53.320;8.672;2023-05-02T06:58:06;101986.72;;;6.23;46.30
20656;BME280;10487;53.320;8.672;2023-05-02T07:01:08;101993.63;;;6.27;46.31
20656;BME280;10487;53.320;8.672;2023-05-02T07:04:10;101999.69;;;6.30;46.24
20656;BME280;10487;53.320;8.672;2023-05-02T07:07:12;101991.56;;;6.35;46.38
20656;BME280;10487;53.320;8.672;2023-05-02T07:10:14;101996.69;;;6.39;46.19
20656;BME280;10487;53.320;8.672;2023-05-02T07:13:15;101998.34;;;6.43;46.07
20656;BME280;10487;53.320;8.672;2023-05-02T07:16:17;101998.16;;;6.48;46.06
20656;BME280;10487;53.320;8.672;2023-05-02T07:19:18;102000.72;;;6.51;46.03
20656;BME280;10487;53.320;8.672;2023-05-02T07:22:20;102004.16;;;6.53;46.05
20656;BME280;10487;53.320;8.672;2023-05-02T07:25:21;102007.56;;;6.56;46.13
20656;BME280;10487;53.320;8.672;2023-05-02T07:28:23;102013.69;;;6.58;46.00
20656;BME280;10487;53.320;8.672;2023-05-02T07:31:25;102023.25;;;6.62;46.00
20656;BME280;10487;53.320;8.672;2023-05-02T07:34:26;102024.06;;;6.64;45.98
20656;BME280;10487;53.320;8.672;2023-05-02T07:37:32;102035.53;;;6.65;45.99
20656;BME280;10487;53.320;8.672;2023-05-02T07:40:35;102036.28;;;6.68;45.97
20656;BME280;10487;53.320;8.672;2023-05-02T07:43:36;102044.94;;;6.74;46.04
20656;BME280;10487;53.320;8.672;2023-05-02T07:46:38;102047.38;;;6.80;45.85
20656;BME280;10487;53.320;8.672;2023-05-02T07:49:40;102050.75;;;6.85;45.96
20656;BME280;10487;53.320;8.672;2023-05-02T07:52:41;102061.16;;;6.89;45.97
20656;BME280;10487;53.320;8.672;2023-05-02T07:55:43;102064.53;;;6.94;45.84
20656;BME280;10487;53.320;8.672;2023-05-02T07:58:45;102057.25;;;6.99;46.16
20656;BME280;10487;53.320;8.672;2023-05-02T08:01:47;102055.34;;;7.03;46.04
20656;BME280;10487;53.320;8.672;2023-05-02T08:04:48;102061.34;;;7.08;46.10
20656;BME280;10487;53.320;8.672;2023-05-02T08:07:51;102067.22;;;7.16;45.94
20656;BME280;10487;53.320;8.672;2023-05-02T08:10:53;102066.06;;;7.23;46.13
20656;BME280;10487;53.320;8.672;2023-05-02T08:13:55;102069.38;;;7.28;46.08
20656;BME280;10487;53.320;8.672;2023-05-02T08:16:57;102073.72;;;7.30;45.90
20656;BME280;10487;53.320;8.672;2023-05-02T08:19:58;102071.13;;;7.29;45.86
20656;BME280;10487;53.320;8.672;2023-05-02T08:23:04;102070.44;;;7.24;45.90
20656;BME280;10487;53.320;8.672;2023-05-02T08:26:05;102083.72;;;7.24;45.92
20656;BME280;10487;53.320;8.672;2023-05-02T08:29:07;102080.94;;;7.27;45.93
20656;BME280;10487;53.320;8.672;2023-05-02T08:32:11;102082.25;;;7.39;45.88
20656;BME280;10487;53.320;8.672;2023-05-02T08:35:13;102065.41;;;7.61;45.88
20656;BME280;10487;53.320;8.672;2023-05-02T08:38:16;102083.94;;;7.84;45.78
20656;BME280;10487;53.320;8.672;2023-05-02T08:41:18;102093.25;;;7.94;45.74
20656;BME280;10487;53.320;8.672;2023-05-02T08:44:20;102096.59;;;7.99;45.58
20656;BME280;10487;53.320;8.672;2023-05-02T08:47:22;102099.75;;;8.09;45.64
20656;BME280;10487;53.320;8.672;2023-05-02T08:50:26;102096.56;;;8.21;45.42
20656;BME280;10487;53.320;8.672;2023-05-02T08:53:31;102102.81;;;8.40;45.29
20656;BME280;10487;53.320;8.672;2023-05-02T08:56:32;102097.72;;;8.56;45.46
20656;BME280;10487;53.320;8.672;2023-05-02T08:59:34;102106.22;;;8.64;45.37
20656;BME280;10487;53.320;8.672;2023-05-02T09:06:19;102107.69;;;8.71;45.18
20656;BME280;10487;53.320;8.672;2023-05-02T09:09:21;102114.22;;;8.83;45.23
20656;BME280;10487;53.320;8.672;2023-05-02T09:12:24;102120.00;;;8.92;45.19
20656;BME280;10487;53.320;8.672;2023-05-02T09:15:27;102136.75;;;8.94;45.24
20656;BME280;10487;53.320;8.672;2023-05-02T09:18:38;102132.44;;;8.92;45.20
20656;BME280;10487;53.320;8.672;2023-05-02T09:21:42;102142.38;;;8.88;45.14
20656;BME280;10487;53.320;8.672;2023-05-02T09:24:53;102139.94;;;8.84;45.05
20656;BME280;10487;53.320;8.672;2023-05-02T09:27:56;102138.06;;;8.86;45.17
20656;BME280;10487;53.320;8.672;2023-05-02T09:31:06;102143.25;;;8.89;45.17
20656;BME280;10487;53.320;8.672;2023-05-02T09:34:15;102142.25;;;8.91;45.13
20656;BME280;10487;53.320;8.672;2023-05-02T09:37:34;102155.03;;;8.83;45.16
20656;BME280;10487;53.320;8.672;2023-05-02T09:40:37;102149.63;;;8.85;45.21
20656;BME280;10487;53.320;8.672;2023-05-02T09:43:40;102167.00;;;8.93;45.15
20656;BME280;10487;53.320;8.672;2023-05-02T09:46:46;102158.34;;;9.08;45.31
20656;BME280;10487;53.320;8.672;2023-05-02T09:49:47;102165.31;;;9.29;45.22
20656;BME280;10487;53.320;8.672;2023-05-02T09:53:04;102165.53;;;9.45;45.13
20656;BME280;10487;53.320;8.672;2023-05-02T09:56:07;102178.19;;;9.59;45.02
20656;BME280;10487;53.320;8.672;2023-05-02T09:59:15;102182.88;;;9.72;45.13
20656;BME280;10487;53.320;8.672;2023-05-02T10:02:18;102187.91;;;9.97;45.11
20656;BME280;10487;53.320;8.672;2023-05-02T10:05:22;102190.84;;;10.27;45.00
20656;BME280;10487;53.320;8.672;2023-05-02T10:08:25;102200.28;;;10.34;44.89
20656;BME280;10487;53.320;8.672;2023-05-02T10:11:28;102206.00;;;10.26;44.91
20656;BME280;10487;53.320;8.672;2023-05-02T10:14:38;102202.28;;;10.12;44.78
20656;BME280;10487;53.320;8.672;2023-05-02T10:17:43;102209.31;;;9.96;44.97
20656;BME280;10487;53.320;8.672;2023-05-02T10:20:55;102206.59;;;9.78;45.11
20656;BME280;10487;53.320;8.672;2023-05-02T10:23:57;102199.38;;;9.62;45.13
20656;BME280;10487;53.320;8.672;2023-05-02T10:27:00;102205.94;;;9.55;45.13
20656;BME280;10487;53.320;8.672;2023-05-02T10:30:04;102207.22;;;9.65;45.28
20656;BME280;10487;53.320;8.672;2023-05-02T10:33:07;102195.75;;;9.81;45.11
20656;BME280;10487;53.320;8.672;2023-05-02T10:36:10;102203.75;;;9.81;44.94
20656;BME280;10487;53.320;8.672;2023-05-02T10:39:14;102208.53;;;9.75;44.93
20656;BME280;10487;53.320;8.672;2023-05-02T10:42:18;102205.22;;;9.70;44.85
20656;BME280;10487;53.320;8.672;2023-05-02T10:45:33;102208.88;;;9.67;45.00
20656;BME280;10487;53.320;8.672;2023-05-02T10:48:35;102222.34;;;9.64;44.86
20656;BME280;10487;53.320;8.672;2023-05-02T10:51:40;102218.91;;;9.62;44.88
20656;BME280;10487;53.320;8.672;2023-05-02T10:54:42;102222.66;;;9.58;44.72
20656;BME280;10487;53.320;8.672;2023-05-02T11:04:25;102229.31;;;10.04;44.89
20656;BME280;10487;53.320;8.672;2023-05-02T11:07:47;102230.66;;;10.31;44.74
20656;BME280;10487;53.320;8.672;2023-05-02T11:10:48;102225.66;;;10.42;44.58
20656;BME280;10487;53.320;8.672;2023-05-02T11:13:50;102242.53;;;10.43;44.53
20656;BME280;10487;53.320;8.672;2023-05-02T11:26:21;102265.69;;;9.88;44.62
20656;BME280;10487;53.320;8.672;2023-05-02T11:29:53;102265.50;;;9.72;44.77
20656;BME280;10487;53.320;8.672;2023-05-02T11:36:00;102276.13;;;9.54;44.98
20656;BME280;10487;53.320;8.672;2023-05-02T11:39:03;102277.34;;;9.47;44.88
20656;BME280;10487;53.320;8.672;2023-05-02T11:42:06;102275.63;;;9.46;44.93
20656;BME280;10487;53.320;8.672;2023-05-02T11:45:08;102272.03;;;9.47;44.97
20656;BME280;10487;53.320;8.672;2023-05-02T11:48:14;102269.09;;;9.53;44.89
20656;BME280;10487;53.320;8.672;2023-05-02T11:51:21;102269.53;;;9.62;44.81
20656;BME280;10487;53.320;8.672;2023-05-02T11:54:23;102273.19;;;9.60;44.82
20656;BME280;10487;53.320;8.672;2023-05-02T11:57:25;102270.53;;;9.60;44.98
20656;BME280;10487;53.320;8.672;2023-05-02T12:00:26;102271.13;;;9.66;44.83
20656;BME280;10487;53.320;8.672;2023-05-02T12:03:30;102273.00;;;9.64;44.77
20656;BME280;10487;53.320;8.672;2023-05-02T12:06:33;102263.97;;;9.67;44.83
20656;BME280;10487;53.320;8.672;2023-05-02T12:09:35;102279.63;;;9.74;44.68
20656;BME280;10487;53.320;8.672;2023-05-02T12:12:37;102270.72;;;9.75;44.73
20656;BME280;10487;53.320;8.672;2023-05-02T12:15:40;102281.06;;;9.81;44.63
20656;BME280;10487;53.320;8.672;2023-05-02T12:18:42;102285.56;;;9.81;44.58
20656;BME280;10487;53.320;8.672;2023-05-02T12:21:44;102282.06;;;9.79;44.65
20656;BME280;10487;53.320;8.672;2023-05-02T12:24:46;102284.56;;;9.83;44.63
20656;BME280;10487;53.320;8.672;2023-05-02T12:28:02;102296.06;;;9.84;44.56
20656;BME280;10487;53.320;8.672;2023-05-02T12:31:09;102305.22;;;9.78;44.57
20656;BME280;10487;53.320;8.672;2023-05-02T12:34:11;102301.16;;;9.70;44.58
20656;BME280;10487;53.320;8.672;2023-05-02T12:37:21;102307.84;;;9.60;44.47
20656;BME280;10487;53.320;8.672;2023-05-02T12:40:23;102304.44;;;9.56;44.44
20656;BME280;10487;53.320;8.672;2023-05-02T12:43:24;102296.44;;;9.56;44.60
20656;BME280;10487;53.320;8.672;2023-05-02T12:46:26;102304.09;;;9.64;44.61
20656;BME280;10487;53.320;8.672;2023-05-02T12:49:46;102313.72;;;9.68;44.41
20656;BME280;10487;53.320;8.672;2023-05-02T12:52:50;102322.63;;;9.67;44.36
20656;BME280;10487;53.320;8.672;2023-05-02T12:56:02;102329.56;;;9.71;44.47
20656;BME280;10487;53.320;8.672;2023-05-02T12:59:04;102328.47;;;9.75;44.34
20656;BME280;10487;53.320;8.672;2023-05-02T13:02:06;102338.22;;;9.76;44.22
20656;BME280;10487;53.320;8.672;2023-05-02T13:05:17;102339.94;;;9.77;44.25
20656;BME280;10487;53.320;8.672;2023-05-02T13:08:19;102339.69;;;9.83;44.20
20656;BME280;10487;53.320;8.672;2023-05-02T13:11:21;102336.78;;;9.87;44.19
20656;BME280;10487;53.320;8.672;2023-05-02T13:14:22;102334.44;;;10.00;44.19
20656;BME280;10487;53.320;8.672;2023-05-02T13:17:24;102333.13;;;10.09;44.16
20656;BME280;10487;53.320;8.672;2023-05-02T13:20:26;102343.50;;;10.15;44.03
20656;BME280;10487;53.320;8.672;2023-05-02T13:23:27;102346.09;;;10.16;44.02
20656;BME280;10487;53.320;8.672;2023-05-02T13:26:29;102350.59;;;10.16;44.04
20656;BME280;10487;53.320;8.672;2023-05-02T13:29:30;102348.13;;;10.11;44.16
20656;BME280;10487;53.320;8.672;2023-05-02T13:32:32;102348.41;;;10.05;43.90
20656;BME280;10487;53.320;8.672;2023-05-02T13:35:34;102369.97;;;10.01;44.04
20656;BME280;10487;53.320;8.672;2023-05-02T13:38:36;102357.63;;;9.98;44.11
20656;BME280;10487;53.320;8.672;2023-05-02T13:41:37;102358.28;;;10.03;44.10
20656;BME280;10487;53.320;8.672;2023-05-02T13:44:39;102348.34;;;10.07;44.09
20656;BME280;10487;53.320;8.672;2023-05-02T13:47:41;102355.31;;;10.09;44.13
20656;BME280;10487;53.320;8.672;2023-05-02T13:50:43;102355.41;;;10.08;44.00
20656;BME280;10487;53.320;8.672;2023-05-02T13:53:44;102363.31;;;10.09;44.08
20656;BME280;10487;53.320;8.672;2023-05-02T13:56:46;102359.88;;;10.07;44.04
20656;BME280;10487;53.320;8.672;2023-05-02T13:59:47;102367.88;;;10.07;44.01
20656;BME280;10487;53.320;8.672;2023-05-02T14:02:49;102367.88;;;10.07;43.94
20656;BME280;10487;53.320;8.672;2023-05-02T14:05:51;102366.44;;;10.00;43.96
20656;BME280;10487;53.320;8.672;2023-05-02T14:08:52;102364.97;;;9.93;43.98
20656;BME280;10487;53.320;8.672;2023-05-02T14:11:54;102374.66;;;9.96;44.16
20656;BME280;10487;53.320;8.672;2023-05-02T14:14:56;102376.22;;;10.00;44.01
20656;BME280;10487;53.320;8.672;2023-05-02T14:17:57;102377.81;;;10.04;44.05
20656;BME280;10487;53.320;8.672;2023-05-02T14:20:59;102378.41;;;10.10;43.93
20656;BME280;10487;53.320;8.672;2023-05-02T14:24:01;102383.78;;;10.09;44.04
20656;BME280;10487;53.320;8.672;2023-05-02T14:27:02;102384.00;;;10.04;43.91
20656;BME280;10487;53.320;8.672;2023-05-02T14:30:05;102378.22;;;9.95;43.91
20656;BME280;10487;53.320;8.672;2023-05-02T14:33:07;102383.00;;;9.88;43.87
20656;BME280;10487;53.320;8.672;2023-05-02T14:36:09;102390.25;;;9.84;43.96
20656;BME280;10487;53.320;8.672;2023-05-02T14:39:11;102390.47;;;9.80;43.85
20656;BME280;10487;53.320;8.672;2023-05-02T14:42:12;102400.38;;;9.76;43.90
20656;BME280;10487;53.320;8.672;2023-05-02T14:45:14;102407.66;;;9.73;43.93
20656;BME280;10487;53.320;8.672;2023-05-02T14:48:16;102406.03;;;9.69;43.90
20656;BME280;10487;53.320;8.672;2023-05-02T14:51:17;102401.78;;;9.65;43.87
20656;BME280;10487;53.320;8.672;2023-05-02T14:54:19;102399.22;;;9.63;44.01
20656;BME280;10487;53.320;8.672;2023-05-02T14:57:23;102406.25;;;9.64;43.90
20656;BME280;10487;53.320;8.672;2023-05-02T15:00:24;102401.78;;;9.65;43.96
20656;BME280;10487;53.320;8.672;2023-05-02T15:03:26;102401.78;;;9.65;43.91
20656;BME280;10487;53.320;8.672;2023-05-02T15:06:29;102403.78;;;9.60;43.86
20656;BME280;10487;53.320;8.672;2023-05-02T15:09:34;102407.53;;;9.56;43.84
20656;BME280;10487;53.320;8.672;2023-05-02T15:12:36;102405.00;;;9.53;43.85
20656;BME280;10487;53.320;8.672;2023-05-02T15:15:38;102416.75;;;9.49;44.01
20656;BME280;10487;53.320;8.672;2023-05-02T15:18:40;102409.78;;;9.45;43.85
20656;BME280;10487;53.320;8.672;2023-05-02T15:21:41;102409.91;;;9.42;43.93
20656;BME280;10487;53.320;8.672;2023-05-02T15:24:43;102420.53;;;9.43;44.11
20656;BME280;10487;53.320;8.672;2023-05-02T15:27:44;102418.72;;;9.44;43.96
20656;BME280;10487;53.320;8.672;2023-05-02T15:30:46;102413.53;;;9.41;43.84
20656;BME280;10487;53.320;8.672;2023-05-02T15:33:50;102410.78;;;9.42;43.88
20656;BME280;10487;53.320;8.672;2023-05-02T15:36:51;102408.91;;;9.44;43.95
20656;BME280;10487;53.320;8.672;2023-05-02T15:39:53;102414.06;;;9.49;43.86
20656;BME280;10487;53.320;8.672;2023-05-02T15:42:55;102413.00;;;9.53;43.84
20656;BME280;10487;53.320;8.672;2023-05-02T15:45:57;102418.91;;;9.59;43.89
20656;BME280;10487;53.320;8.672;2023-05-02T15:48:59;102420.25;;;9.69;43.80
20656;BME280;10487;53.320;8.672;2023-05-02T15:52:01;102426.03;;;9.79;43.71
20656;BME280;10487;53.320;8.672;2023-05-02T15:55:03;102425.78;;;9.85;43.71
20656;BME280;10487;53.320;8.672;2023-05-02T15:58:05;102419.44;;;9.87;43.85
20656;BME280;10487;53.320;8.672;2023-05-02T16:01:07;102428.31;;;9.88;43.62
20656;BME280;10487;53.320;8.672;2023-05-02T16:04:09;102435.25;;;9.92;43.66
20656;BME280;10487;53.320;8.672;2023-05-02T16:07:10;102443.16;;;9.93;43.68
20656;BME280;10487;53.320;8.672;2023-05-02T16:10:12;102444.91;;;9.95;43.68
20656;BME280;10487;53.320;8.672;2023-05-02T16:13:13;102436.03;;;9.94;43.71
20656;BME280;10487;53.320;8.672;2023-05-02T16:16:15;102441.38;;;9.94;43.58
20656;BME280;10487;53.320;8.672;2023-05-02T16:19:17;102437.66;;;9.98;43.58
20656;BME280;10487;53.320;8.672;2023-05-02T16:22:19;102460.78;;;9.98;43.59
20656;BME280;10487;53.320;8.672;2023-05-02T16:25:21;102460.31;;;9.88;43.66
20656;BME280;10487;53.320;8.672;2023-05-02T16:28:22;102456.31;;;9.78;43.62
20656;BME280;10487;53.320;8.672;2023-05-02T16:31:24;102454.69;;;9.74;43.77
20656;BME280;10487;53.320;8.672;2023-05-02T16:34:30;102455.78;;;9.70;43.63
20656;BME280;10487;53.320;8.672;2023-05-02T16:37:33;102452.44;;;9.65;43.72
20656;BME280;10487;53.320;8.672;2023-05-02T16:40:35;102444.69;;;9.59;43.71
20656;BME280;10487;53.320;8.672;2023-05-02T16:43:37;102453.88;;;9.52;43.62
20656;BME280;10487;53.320;8.672;2023-05-02T16:46:39;102449.56;;;9.49;43.65
20656;BME280;10487;53.320;8.672;2023-05-02T16:49:41;102453.28;;;9.45;43.52
20656;BME280;10487;53.320;8.672;2023-05-02T16:52:43;102462.28;;;9.43;43.62